createdAt,value
2023-04-16T00:00:52.833Z,94361.00
2023-04-16T00:01:52.958Z,94357.00
2023-04-16T00:02:53.059Z,94359.00
2023-04-16T00:03:53.169Z,94361.00
2023-04-16T00:04:52.862Z,94361.00
2023-04-16T00:05:52.812Z,94363.00
2023-04-16T00:06:52.833Z,94365.00
2023-04-16T00:07:52.858Z,94365.00
2023-04-16T00:08:52.818Z,94365.00
2023-04-16T00:09:52.840Z,94371.00
2023-04-16T00:10:52.863Z,94367.00
2023-04-16T00:11:52.865Z,94369.00
2023-04-16T00:12:52.849Z,94367.00
2023-04-16T00:13:52.869Z,94369.00
2023-04-16T00:14:52.891Z,94367.00
2023-04-16T00:15:52.927Z,94367.00
2023-04-16T00:16:52.923Z,94369.00
2023-04-16T00:17:52.965Z,94367.00
2023-04-16T00:18:52.913Z,94369.00
2023-04-16T00:19:52.875Z,94367.00
2023-04-16T00:20:52.885Z,94369.00
2023-04-16T00:21:53.080Z,94367.00
2023-04-16T00:22:52.888Z,94367.00
2023-04-16T00:23:52.915Z,94367.00
2023-04-16T00:24:52.884Z,94367.00
2023-04-16T00:25:52.928Z,94367.00
2023-04-16T00:26:52.945Z,94367.00
2023-04-16T00:27:52.937Z,94367.00
2023-04-16T00:28:52.925Z,94367.00
2023-04-16T00:29:52.945Z,94367.00
2023-04-16T00:30:52.934Z,94367.00
2023-04-16T00:31:52.938Z,94367.00
2023-04-16T00:32:52.957Z,94369.00
2023-04-16T00:33:52.947Z,94367.00
2023-04-16T00:34:52.929Z,94369.00
2023-04-16T00:35:52.968Z,94369.00
2023-04-16T00:36:52.974Z,94371.00
2023-04-16T00:37:52.957Z,94373.00
2023-04-16T00:38:52.971Z,94373.00
2023-04-16T00:39:52.984Z,94380.00
2023-04-16T00:40:52.991Z,94373.00
2023-04-16T00:41:52.987Z,94373.00
2023-04-16T00:42:53.010Z,94380.00
2023-04-16T00:43:52.966Z,94382.00
2023-04-16T00:44:52.995Z,94384.00
2023-04-16T00:45:53.090Z,94384.00
2023-04-16T00:46:53.042Z,94384.00
2023-04-16T00:47:53.028Z,94386.00
2023-04-16T00:48:53.033Z,94388.00
2023-04-16T00:49:52.986Z,94388.00
2023-04-16T00:50:53.000Z,94388.00
2023-04-16T00:51:53.010Z,94390.00
2023-04-16T00:52:53.009Z,94392.00
2023-04-16T00:53:53.019Z,94390.00
2023-04-16T00:54:53.013Z,94392.00
2023-04-16T00:55:53.024Z,94392.00
2023-04-16T00:56:53.041Z,94390.00
2023-04-16T00:57:53.054Z,94392.00
2023-04-16T00:58:53.046Z,94392.00
2023-04-16T00:59:53.062Z,94388.00
2023-04-16T01:00:53.068Z,94390.00
2023-04-16T01:01:53.188Z,94388.00
2023-04-16T01:02:53.153Z,94388.00
2023-04-16T01:03:53.273Z,94390.00
2023-04-16T01:04:53.102Z,94390.00
2023-04-16T01:05:53.106Z,94390.00
2023-04-16T01:06:53.117Z,94390.00
2023-04-16T01:07:53.167Z,94390.00
2023-04-16T01:08:53.153Z,94390.00
2023-04-16T01:09:53.185Z,94392.00
2023-04-16T01:10:53.169Z,94392.00
2023-04-16T01:11:53.185Z,94390.00
2023-04-16T01:12:53.211Z,94390.00
2023-04-16T01:13:53.225Z,94390.00
2023-04-16T01:14:53.198Z,94390.00
2023-04-16T01:15:53.219Z,94390.00
2023-04-16T01:16:53.224Z,94388.00
2023-04-16T01:17:53.210Z,94388.00
2023-04-16T01:18:53.239Z,94390.00
2023-04-16T01:19:53.273Z,94392.00
2023-04-16T01:20:53.245Z,94390.00
2023-04-16T01:21:53.271Z,94392.00
2023-04-16T01:22:53.267Z,94394.00
2023-04-16T01:23:53.320Z,94390.00
2023-04-16T01:24:53.280Z,94394.00
2023-04-16T01:25:53.297Z,94392.00
2023-04-16T01:26:53.326Z,94390.00
2023-04-16T01:27:53.308Z,94392.00
2023-04-16T01:28:53.358Z,94390.00
2023-04-16T01:29:53.350Z,94392.00
2023-04-16T01:30:53.396Z,94390.00
2023-04-16T01:31:53.531Z,94394.00
2023-04-16T01:32:53.412Z,94392.00
2023-04-16T01:33:53.393Z,94394.00
2023-04-16T01:34:53.405Z,94394.00
2023-04-16T01:35:53.402Z,94394.00
2023-04-16T01:36:53.436Z,94396.00
2023-04-16T01:37:53.417Z,94392.00
2023-04-16T01:38:53.436Z,94396.00
2023-04-16T01:39:53.451Z,94394.00
2023-04-16T01:40:53.516Z,94394.00
2023-04-16T01:41:53.455Z,94400.00
2023-04-16T01:42:53.477Z,94396.00
2023-04-16T01:43:53.482Z,94398.00
2023-04-16T01:44:53.517Z,94398.00
2023-04-16T01:45:53.565Z,94398.00
2023-04-16T01:46:53.591Z,94400.00
2023-04-16T01:47:53.530Z,94400.00
2023-04-16T01:48:53.519Z,94402.00
2023-04-16T01:49:53.548Z,94402.00
2023-04-16T01:50:53.569Z,94406.00
2023-04-16T01:51:53.547Z,94408.00
2023-04-16T01:52:53.573Z,94406.00
2023-04-16T01:53:53.586Z,94406.00
2023-04-16T01:54:53.599Z,94408.00
2023-04-16T01:55:53.569Z,94406.00
2023-04-16T01:56:53.631Z,94406.00
2023-04-16T01:57:53.602Z,94406.00
2023-04-16T01:58:53.669Z,94406.00
2023-04-16T01:59:53.647Z,94408.00
2023-04-16T02:00:53.674Z,94406.00
2023-04-16T02:01:53.734Z,94406.00
2023-04-16T02:02:53.989Z,94408.00
2023-04-16T02:03:53.803Z,94406.00
2023-04-16T02:04:53.680Z,94408.00
2023-04-16T02:05:53.713Z,94410.00
2023-04-16T02:06:53.738Z,94412.00
2023-04-16T02:07:53.741Z,94406.00
2023-04-16T02:08:53.736Z,94412.00
2023-04-16T02:09:53.748Z,94412.00
2023-04-16T02:10:53.771Z,94408.00
2023-04-16T02:11:53.759Z,94414.00
2023-04-16T02:12:53.831Z,94410.00
2023-04-16T02:13:53.789Z,94414.00
2023-04-16T02:14:53.805Z,94410.00
2023-04-16T02:15:53.813Z,94410.00
2023-04-16T02:16:53.893Z,94412.00
2023-04-16T02:17:53.926Z,94416.00
2023-04-16T02:18:53.843Z,94412.00
2023-04-16T02:19:53.846Z,94412.00
2023-04-16T02:20:53.854Z,94412.00
2023-04-16T02:21:53.868Z,94412.00
2023-04-16T02:22:54.123Z,94416.00
2023-04-16T02:23:53.915Z,94416.00
2023-04-16T02:24:53.905Z,94412.00
2023-04-16T02:25:53.917Z,94416.00
2023-04-16T02:26:53.919Z,94416.00
2023-04-16T02:27:53.945Z,94418.00
2023-04-16T02:28:53.973Z,94416.00
2023-04-16T02:29:53.962Z,94414.00
2023-04-16T02:30:53.973Z,94416.00
2023-04-16T02:31:53.987Z,94418.00
2023-04-16T02:32:54.073Z,94416.00
2023-04-16T02:33:54.014Z,94416.00
2023-04-16T02:34:54.009Z,94416.00
2023-04-16T02:35:54.039Z,94418.00
2023-04-16T02:36:54.042Z,94416.00
2023-04-16T02:37:54.076Z,94418.00
2023-04-16T02:38:54.091Z,94420.00
2023-04-16T02:39:54.095Z,94418.00
2023-04-16T02:40:54.107Z,94418.00
2023-04-16T02:41:54.115Z,94418.00
2023-04-16T02:42:54.140Z,94420.00
2023-04-16T02:43:54.147Z,94424.00
2023-04-16T02:44:54.136Z,94422.00
2023-04-16T02:45:54.177Z,94424.00
2023-04-16T02:46:54.165Z,94426.00
2023-04-16T02:47:54.291Z,94426.00
2023-04-16T02:48:54.205Z,94426.00
2023-04-16T02:49:54.202Z,94428.00
2023-04-16T02:50:54.212Z,94428.00
2023-04-16T02:51:54.206Z,94430.00
2023-04-16T02:52:54.249Z,94432.00
2023-04-16T02:53:54.244Z,94432.00
2023-04-16T02:54:54.283Z,94432.00
2023-04-16T02:55:54.266Z,94432.00
2023-04-16T02:56:54.321Z,94430.00
2023-04-16T02:57:54.278Z,94432.00
2023-04-16T02:58:54.285Z,94430.00
2023-04-16T02:59:54.335Z,94432.00
2023-04-16T03:00:54.372Z,94432.00
2023-04-16T03:01:54.409Z,94430.00
2023-04-16T03:02:54.540Z,94432.00
2023-04-16T03:03:54.375Z,94432.00
2023-04-16T03:04:54.382Z,94432.00
2023-04-16T03:05:54.398Z,94432.00
2023-04-16T03:06:54.393Z,94432.00
2023-04-16T03:07:54.462Z,94434.00
2023-04-16T03:08:54.430Z,94434.00
2023-04-16T03:09:54.438Z,94434.00
2023-04-16T03:10:54.448Z,94434.00
2023-04-16T03:11:54.450Z,94435.00
2023-04-16T03:12:54.682Z,94435.00
2023-04-16T03:13:54.474Z,94437.00
2023-04-16T03:14:54.484Z,94435.00
2023-04-16T03:15:54.599Z,94437.00
2023-04-16T03:16:54.529Z,94435.00
2023-04-16T03:17:54.578Z,94437.00
2023-04-16T03:18:54.536Z,94439.00
2023-04-16T03:19:54.538Z,94439.00
2023-04-16T03:20:54.552Z,94439.00
2023-04-16T03:21:54.559Z,94441.00
2023-04-16T03:22:54.585Z,94439.00
2023-04-16T03:23:54.607Z,94441.00
2023-04-16T03:24:54.609Z,94443.00
2023-04-16T03:25:54.611Z,94441.00
2023-04-16T03:26:54.668Z,94445.00
2023-04-16T03:27:54.666Z,94447.00
2023-04-16T03:28:54.702Z,94443.00
2023-04-16T03:29:54.679Z,94441.00
2023-04-16T03:30:54.692Z,94439.00
2023-04-16T03:31:54.712Z,94439.00
2023-04-16T03:32:54.770Z,94439.00
2023-04-16T03:33:54.747Z,94441.00
2023-04-16T03:34:54.752Z,94441.00
2023-04-16T03:35:54.754Z,94441.00
2023-04-16T03:36:54.798Z,94441.00
2023-04-16T03:37:54.785Z,94441.00
2023-04-16T03:38:54.796Z,94443.00
2023-04-16T03:39:54.813Z,94443.00
2023-04-16T03:40:54.809Z,94441.00
2023-04-16T03:41:54.804Z,94441.00
2023-04-16T03:42:54.822Z,94443.00
2023-04-16T03:43:54.830Z,94443.00
2023-04-16T03:44:54.894Z,94443.00
2023-04-16T03:45:54.856Z,94441.00
2023-04-16T03:46:54.971Z,94445.00
2023-04-16T03:47:54.914Z,94445.00
2023-04-16T03:48:54.889Z,94447.00
2023-04-16T03:49:54.912Z,94449.00
2023-04-16T03:50:54.911Z,94447.00
2023-04-16T03:51:54.927Z,94449.00
2023-04-16T03:52:54.947Z,94451.00
2023-04-16T03:53:55.145Z,94451.00
2023-04-16T03:54:54.934Z,94449.00
2023-04-16T03:55:54.980Z,94453.00
2023-04-16T03:56:54.960Z,94453.00
2023-04-16T03:57:54.994Z,94453.00
2023-04-16T03:58:55.159Z,94455.00
2023-04-16T03:59:55.000Z,94453.00
2023-04-16T04:00:55.045Z,94453.00
2023-04-16T04:01:55.076Z,94455.00
2023-04-16T04:02:55.222Z,94455.00
2023-04-16T04:03:55.162Z,94457.00
2023-04-16T04:04:55.098Z,94457.00
2023-04-16T04:05:55.091Z,94455.00
2023-04-16T04:06:55.060Z,94457.00
2023-04-16T04:07:55.065Z,94459.00
2023-04-16T04:08:55.105Z,94457.00
2023-04-16T04:09:55.085Z,94459.00
2023-04-16T04:10:55.107Z,94461.00
2023-04-16T04:11:55.096Z,94459.00
2023-04-16T04:12:55.110Z,94461.00
2023-04-16T04:13:55.134Z,94461.00
2023-04-16T04:14:55.100Z,94463.00
2023-04-16T04:15:55.144Z,94463.00
2023-04-16T04:16:55.140Z,94465.00
2023-04-16T04:17:55.198Z,94467.00
2023-04-16T04:18:55.203Z,94467.00
2023-04-16T04:20:56.161Z,94469.00
2023-04-16T04:21:55.133Z,94469.00
2023-04-16T04:22:55.139Z,94469.00
2023-04-16T04:23:56.120Z,94467.00
2023-04-16T04:24:55.141Z,94467.00
2023-04-16T04:25:55.117Z,94469.00
2023-04-16T04:26:55.110Z,94469.00
2023-04-16T04:27:55.082Z,94469.00
2023-04-16T04:28:55.094Z,94473.00
2023-04-16T04:29:55.101Z,94475.00
2023-04-16T04:30:55.079Z,94475.00
2023-04-16T04:31:55.120Z,94477.00
2023-04-16T04:32:55.168Z,94477.00
2023-04-16T04:33:55.082Z,94477.00
2023-04-16T04:34:55.059Z,94477.00
2023-04-16T04:35:55.030Z,94477.00
2023-04-16T04:36:55.061Z,94477.00
2023-04-16T04:37:55.024Z,94477.00
2023-04-16T04:38:55.016Z,94477.00
2023-04-16T04:39:55.010Z,94477.00
2023-04-16T04:40:55.023Z,94477.00
2023-04-16T04:41:55.045Z,94481.00
2023-04-16T04:42:54.991Z,94481.00
2023-04-16T04:43:55.027Z,94482.00
2023-04-16T04:44:54.976Z,94484.00
2023-04-16T04:45:55.011Z,94486.00
2023-04-16T04:46:54.960Z,94488.00
2023-04-16T04:47:54.990Z,94488.00
2023-04-16T04:48:54.963Z,94492.00
2023-04-16T04:49:54.987Z,94490.00
2023-04-16T04:50:54.980Z,94492.00
2023-04-16T04:51:54.924Z,94492.00
2023-04-16T04:52:54.926Z,94494.00
2023-04-16T04:53:54.948Z,94492.00
2023-04-16T04:54:54.942Z,94494.00
2023-04-16T04:55:57.483Z,94496.00
2023-04-16T04:56:55.898Z,94498.00
2023-04-16T04:57:54.892Z,94496.00
2023-04-16T04:58:54.898Z,94496.00
2023-04-16T04:59:54.921Z,94498.00
2023-04-16T05:00:54.891Z,94500.00
2023-04-16T05:01:54.900Z,94498.00
2023-04-16T05:02:54.972Z,94498.00
2023-04-16T05:03:54.924Z,94498.00
2023-04-16T05:04:54.878Z,94498.00
2023-04-16T05:05:54.846Z,94498.00
2023-04-16T05:06:54.840Z,94498.00
2023-04-16T05:07:54.865Z,94494.00
2023-04-16T05:08:54.806Z,94496.00
2023-04-16T05:09:54.813Z,94498.00
2023-04-16T05:10:54.810Z,94498.00
2023-04-16T05:11:54.840Z,94498.00
2023-04-16T05:12:54.780Z,94500.00
2023-04-16T05:13:54.828Z,94502.00
2023-04-16T05:14:54.785Z,94500.00
2023-04-16T05:15:54.756Z,94502.00
2023-04-16T05:16:54.795Z,94504.00
2023-04-16T05:17:54.821Z,94506.00
2023-04-16T05:18:54.760Z,94506.00
2023-04-16T05:19:54.735Z,94504.00
2023-04-16T05:20:54.724Z,94508.00
2023-04-16T05:21:54.729Z,94512.00
2023-04-16T05:22:54.720Z,94514.00
2023-04-16T05:23:54.776Z,94512.00
2023-04-16T05:24:54.715Z,94516.00
2023-04-16T05:25:54.714Z,94516.00
2023-04-16T05:26:54.708Z,94520.00
2023-04-16T05:27:54.705Z,94520.00
2023-04-16T05:28:54.762Z,94520.00
2023-04-16T05:29:54.673Z,94520.00
2023-04-16T05:30:54.758Z,94524.00
2023-04-16T05:31:54.666Z,94526.00
2023-04-16T05:32:54.694Z,94526.00
2023-04-16T05:33:54.664Z,94530.00
2023-04-16T05:34:54.650Z,94528.00
2023-04-16T05:35:54.668Z,94528.00
2023-04-16T05:36:54.666Z,94530.00
2023-04-16T05:37:54.700Z,94532.00
2023-04-16T05:38:54.706Z,94533.00
2023-04-16T05:39:54.685Z,94535.00
2023-04-16T05:40:54.700Z,94535.00
2023-04-16T05:41:54.724Z,94539.00
2023-04-16T05:42:54.685Z,94537.00
2023-04-16T05:43:54.687Z,94541.00
2023-04-16T05:44:54.696Z,94541.00
2023-04-16T05:45:54.771Z,94543.00
2023-04-16T05:46:54.756Z,94541.00
2023-04-16T05:47:54.863Z,94541.00
2023-04-16T05:48:54.742Z,94543.00
2023-04-16T05:49:54.760Z,94541.00
2023-04-16T05:50:54.791Z,94545.00
2023-04-16T05:51:54.753Z,94547.00
2023-04-16T05:52:54.761Z,94545.00
2023-04-16T05:53:54.792Z,94545.00
2023-04-16T05:54:54.787Z,94547.00
2023-04-16T05:55:54.775Z,94545.00
2023-04-16T05:56:54.780Z,94547.00
2023-04-16T05:57:54.792Z,94545.00
2023-04-16T05:58:54.817Z,94545.00
2023-04-16T05:59:54.948Z,94547.00
2023-04-16T06:00:54.879Z,94547.00
2023-04-16T06:01:54.856Z,94547.00
2023-04-16T06:02:54.892Z,94547.00
2023-04-16T06:03:54.977Z,94549.00
2023-04-16T06:04:54.842Z,94551.00
2023-04-16T06:05:54.944Z,94551.00
2023-04-16T06:06:54.885Z,94551.00
2023-04-16T06:07:54.890Z,94553.00
2023-04-16T06:08:54.897Z,94555.00
2023-04-16T06:09:54.869Z,94555.00
2023-04-16T06:10:54.900Z,94557.00
2023-04-16T06:11:54.905Z,94557.00
2023-04-16T06:12:54.913Z,94559.00
2023-04-16T06:13:54.916Z,94561.00
2023-04-16T06:14:54.958Z,94561.00
2023-04-16T06:15:54.964Z,94561.00
2023-04-16T06:16:54.973Z,94563.00
2023-04-16T06:17:54.995Z,94559.00
2023-04-16T06:18:54.983Z,94563.00
2023-04-16T06:19:54.961Z,94563.00
2023-04-16T06:20:54.954Z,94561.00
2023-04-16T06:21:54.988Z,94563.00
2023-04-16T06:22:54.990Z,94561.00
2023-04-16T06:23:54.958Z,94567.00
2023-04-16T06:24:54.989Z,94567.00
2023-04-16T06:25:54.995Z,94565.00
2023-04-16T06:26:55.002Z,94565.00
2023-04-16T06:27:54.995Z,94567.00
2023-04-16T06:28:55.020Z,94565.00
2023-04-16T06:29:55.040Z,94565.00
2023-04-16T06:30:55.001Z,94567.00
2023-04-16T06:31:55.034Z,94569.00
2023-04-16T06:32:55.101Z,94569.00
2023-04-16T06:33:55.050Z,94569.00
2023-04-16T06:34:55.043Z,94569.00
2023-04-16T06:35:55.045Z,94569.00
2023-04-16T06:36:55.044Z,94573.00
2023-04-16T06:37:55.080Z,94571.00
2023-04-16T06:38:55.092Z,94573.00
2023-04-16T06:39:55.092Z,94573.00
2023-04-16T06:40:55.087Z,94573.00
2023-04-16T06:41:55.098Z,94571.00
2023-04-16T06:42:55.119Z,94571.00
2023-04-16T06:43:55.133Z,94569.00
2023-04-16T06:44:55.134Z,94569.00
2023-04-16T06:45:55.146Z,94569.00
2023-04-16T06:46:55.153Z,94571.00
2023-04-16T06:47:55.174Z,94571.00
2023-04-16T06:48:55.172Z,94571.00
2023-04-16T06:49:55.211Z,94573.00
2023-04-16T06:50:55.197Z,94569.00
2023-04-16T06:51:55.193Z,94571.00
2023-04-16T06:52:55.210Z,94569.00
2023-04-16T06:53:55.302Z,94571.00
2023-04-16T06:54:55.243Z,94567.00
2023-04-16T06:55:55.256Z,94565.00
2023-04-16T06:56:55.265Z,94567.00
2023-04-16T06:57:55.266Z,94567.00
2023-04-16T06:58:55.308Z,94565.00
2023-04-16T06:59:55.308Z,94565.00
2023-04-16T07:00:55.317Z,94565.00
2023-04-16T07:01:55.347Z,94569.00
2023-04-16T07:02:57.105Z,94567.00
2023-04-16T07:03:55.593Z,94567.00
2023-04-16T07:04:55.294Z,94567.00
2023-04-16T07:05:55.320Z,94567.00
2023-04-16T07:06:55.283Z,94565.00
2023-04-16T07:07:55.264Z,94565.00
2023-04-16T07:08:55.309Z,94563.00
2023-04-16T07:09:55.257Z,94563.00
2023-04-16T07:10:55.329Z,94567.00
2023-04-16T07:11:55.235Z,94565.00
2023-04-16T07:12:55.279Z,94565.00
2023-04-16T07:13:55.267Z,94565.00
2023-04-16T07:14:55.232Z,94567.00
2023-04-16T07:15:55.321Z,94567.00
2023-04-16T07:16:55.299Z,94569.00
2023-04-16T07:17:55.269Z,94565.00
2023-04-16T07:18:55.220Z,94567.00
2023-04-16T07:19:55.216Z,94567.00
2023-04-16T07:20:55.182Z,94569.00
2023-04-16T07:21:55.186Z,94569.00
2023-04-16T07:22:55.179Z,94571.00
2023-04-16T07:23:55.161Z,94571.00
2023-04-16T07:24:55.188Z,94571.00
2023-04-16T07:25:55.282Z,94571.00
2023-04-16T07:26:55.169Z,94573.00
2023-04-16T07:27:55.134Z,94571.00
2023-04-16T07:28:55.159Z,94571.00
2023-04-16T07:29:55.132Z,94573.00
2023-04-16T07:30:55.140Z,94573.00
2023-04-16T07:31:55.119Z,94573.00
2023-04-16T07:32:55.181Z,94578.00
2023-04-16T07:33:55.097Z,94578.00
2023-04-16T07:34:55.107Z,94580.00
2023-04-16T07:35:55.149Z,94578.00
2023-04-16T07:36:55.109Z,94580.00
2023-04-16T07:37:55.104Z,94582.00
2023-04-16T07:38:55.081Z,94582.00
2023-04-16T07:39:57.357Z,94584.00
2023-04-16T07:40:55.081Z,94580.00
2023-04-16T07:41:55.092Z,94586.00
2023-04-16T07:42:55.048Z,94588.00
2023-04-16T07:43:55.222Z,94584.00
2023-04-16T07:44:55.130Z,94584.00
2023-04-16T07:45:55.281Z,94582.00
2023-04-16T07:46:55.169Z,94588.00
2023-04-16T07:47:55.127Z,94588.00
2023-04-16T07:48:55.134Z,94586.00
2023-04-16T07:49:55.102Z,94584.00
2023-04-16T07:50:55.085Z,94584.00
2023-04-16T07:51:55.071Z,94582.00
2023-04-16T07:52:55.101Z,94582.00
2023-04-16T07:53:55.064Z,94586.00
2023-04-16T07:54:55.130Z,94588.00
2023-04-16T07:55:55.055Z,94586.00
2023-04-16T07:56:55.065Z,94588.00
2023-04-16T07:57:55.083Z,94590.00
2023-04-16T07:58:55.076Z,94590.00
2023-04-16T07:59:55.055Z,94590.00
2023-04-16T08:00:55.065Z,94590.00
2023-04-16T08:01:55.098Z,94588.00
2023-04-16T08:02:55.186Z,94590.00
2023-04-16T08:03:55.158Z,94592.00
2023-04-16T08:04:55.099Z,94590.00
2023-04-16T08:05:55.021Z,94592.00
2023-04-16T08:06:55.042Z,94594.00
2023-04-16T08:07:55.127Z,94596.00
2023-04-16T08:08:55.028Z,94598.00
2023-04-16T08:09:55.005Z,94598.00
2023-04-16T08:10:55.028Z,94598.00
2023-04-16T08:11:55.001Z,94600.00
2023-04-16T08:12:55.002Z,94598.00
2023-04-16T08:13:54.988Z,94598.00
2023-04-16T08:14:55.035Z,94604.00
2023-04-16T08:15:55.044Z,94604.00
2023-04-16T08:16:55.131Z,94604.00
2023-04-16T08:17:55.057Z,94604.00
2023-04-16T08:18:54.984Z,94608.00
2023-04-16T08:19:54.985Z,94606.00
2023-04-16T08:20:54.998Z,94608.00
2023-04-16T08:21:54.974Z,94612.00
2023-04-16T08:22:54.979Z,94612.00
2023-04-16T08:23:54.954Z,94614.00
2023-04-16T08:24:54.968Z,94616.00
2023-04-16T08:25:54.996Z,94618.00
2023-04-16T08:26:56.989Z,94618.00
2023-04-16T08:27:55.948Z,94618.00
2023-04-16T08:28:54.946Z,94620.00
2023-04-16T08:29:54.955Z,94622.00
2023-04-16T08:30:55.016Z,94622.00
2023-04-16T08:31:54.964Z,94622.00
2023-04-16T08:32:54.998Z,94622.00
2023-04-16T08:33:54.911Z,94628.00
2023-04-16T08:34:54.897Z,94624.00
2023-04-16T08:35:54.888Z,94626.00
2023-04-16T08:36:54.901Z,94630.00
2023-04-16T08:37:54.875Z,94630.00
2023-04-16T08:38:54.866Z,94630.00
2023-04-16T08:39:54.928Z,94637.00
2023-04-16T08:40:54.863Z,94630.00
2023-04-16T08:41:54.856Z,94630.00
2023-04-16T08:42:54.851Z,94630.00
2023-04-16T08:43:54.876Z,94628.00
2023-04-16T08:44:54.848Z,94637.00
2023-04-16T08:45:54.838Z,94630.00
2023-04-16T08:46:54.973Z,94637.00
2023-04-16T08:47:54.880Z,94637.00
2023-04-16T08:48:54.804Z,94637.00
2023-04-16T08:49:56.252Z,94639.00
2023-04-16T08:50:55.534Z,94639.00
2023-04-16T08:51:54.810Z,94639.00
2023-04-16T08:52:54.771Z,94639.00
2023-04-16T08:53:54.791Z,94639.00
2023-04-16T08:54:56.527Z,94641.00
2023-04-16T08:55:54.758Z,94639.00
2023-04-16T08:56:54.758Z,94643.00
2023-04-16T08:57:54.729Z,94643.00
2023-04-16T08:58:54.801Z,94643.00
2023-04-16T08:59:54.733Z,94645.00
2023-04-16T09:00:54.728Z,94645.00
2023-04-16T09:01:54.734Z,94647.00
2023-04-16T09:02:54.879Z,94649.00
2023-04-16T09:03:54.932Z,94649.00
2023-04-16T09:04:54.839Z,94651.00
2023-04-16T09:05:54.704Z,94649.00
2023-04-16T09:06:54.670Z,94653.00
2023-04-16T09:07:54.734Z,94651.00
2023-04-16T09:08:54.680Z,94651.00
2023-04-16T09:09:54.665Z,94649.00
2023-04-16T09:10:54.653Z,94649.00
2023-04-16T09:11:54.642Z,94649.00
2023-04-16T09:12:54.646Z,94653.00
2023-04-16T09:13:54.623Z,94653.00
2023-04-16T09:14:54.625Z,94655.00
2023-04-16T09:15:54.643Z,94653.00
2023-04-16T09:16:54.584Z,94653.00
2023-04-16T09:17:54.617Z,94653.00
2023-04-16T09:18:54.592Z,94657.00
2023-04-16T09:19:54.577Z,94655.00
2023-04-16T09:20:54.708Z,94655.00
2023-04-16T09:21:54.603Z,94655.00
2023-04-16T09:22:54.569Z,94657.00
2023-04-16T09:23:54.570Z,94655.00
2023-04-16T09:24:54.545Z,94655.00
2023-04-16T09:25:54.567Z,94653.00
2023-04-16T09:26:54.549Z,94653.00
2023-04-16T09:27:54.517Z,94651.00
2023-04-16T09:28:54.552Z,94653.00
2023-04-16T09:29:54.543Z,94651.00
2023-04-16T09:30:54.504Z,94651.00
2023-04-16T09:31:54.550Z,94649.00
2023-04-16T09:32:54.529Z,94651.00
2023-04-16T09:33:54.513Z,94649.00
2023-04-16T09:34:54.517Z,94651.00
2023-04-16T09:35:54.482Z,94649.00
2023-04-16T09:36:54.506Z,94651.00
2023-04-16T09:37:54.569Z,94649.00
2023-04-16T09:38:56.940Z,94647.00
2023-04-16T09:39:54.512Z,94645.00
2023-04-16T09:40:54.478Z,94645.00
2023-04-16T09:41:54.490Z,94649.00
2023-04-16T09:42:54.469Z,94647.00
2023-04-16T09:43:54.787Z,94645.00
2023-04-16T09:44:54.450Z,94645.00
2023-04-16T09:45:54.481Z,94645.00
2023-04-16T09:46:54.442Z,94645.00
2023-04-16T09:47:54.526Z,94647.00
2023-04-16T09:48:54.484Z,94647.00
2023-04-16T09:49:54.448Z,94647.00
2023-04-16T09:50:54.431Z,94647.00
2023-04-16T09:51:54.424Z,94649.00
2023-04-16T09:52:54.422Z,94647.00
2023-04-16T09:53:54.433Z,94647.00
2023-04-16T09:54:54.391Z,94649.00
2023-04-16T09:55:54.419Z,94647.00
2023-04-16T09:56:54.380Z,94647.00
2023-04-16T09:57:54.380Z,94645.00
2023-04-16T09:58:54.362Z,94647.00
2023-04-16T09:59:54.376Z,94645.00
2023-04-16T10:00:54.399Z,94645.00
2023-04-16T10:02:14.717Z,94643.00
2023-04-16T10:02:55.474Z,94645.00
2023-04-16T10:03:54.464Z,94647.00
2023-04-16T10:04:54.368Z,94647.00
2023-04-16T10:05:54.342Z,94639.00
2023-04-16T10:06:54.316Z,94643.00
2023-04-16T10:07:54.298Z,94643.00
2023-04-16T10:08:54.293Z,94643.00
2023-04-16T10:09:54.296Z,94641.00
2023-04-16T10:10:54.276Z,94641.00
2023-04-16T10:11:54.296Z,94643.00
2023-04-16T10:12:54.266Z,94641.00
2023-04-16T10:13:54.278Z,94645.00
2023-04-16T10:14:54.290Z,94643.00
2023-04-16T10:15:54.349Z,94637.00
2023-04-16T10:16:54.432Z,94641.00
2023-04-16T10:17:54.500Z,94637.00
2023-04-16T10:18:54.514Z,94639.00
2023-04-16T10:19:54.604Z,94639.00
2023-04-16T10:20:54.621Z,94630.00
2023-04-16T10:21:54.687Z,94626.00
2023-04-16T10:22:54.737Z,94630.00
2023-04-16T10:23:54.806Z,94628.00
2023-04-16T10:24:54.900Z,94630.00
2023-04-16T10:25:56.971Z,94626.00
2023-04-16T10:26:54.951Z,94626.00
2023-04-16T10:27:54.944Z,94624.00
2023-04-16T10:28:54.941Z,94622.00
2023-04-16T10:29:54.888Z,94622.00
2023-04-16T10:30:54.958Z,94620.00
2023-04-16T10:31:54.896Z,94620.00
2023-04-16T10:32:54.920Z,94622.00
2023-04-16T10:33:54.889Z,94620.00
2023-04-16T10:34:54.864Z,94622.00
2023-04-16T10:36:04.942Z,94620.00
2023-04-16T10:36:55.890Z,94622.00
2023-04-16T10:37:54.836Z,94622.00
2023-04-16T10:38:54.853Z,94624.00
2023-04-16T10:39:54.835Z,94624.00
2023-04-16T10:40:54.826Z,94624.00
2023-04-16T10:41:54.807Z,94624.00
2023-04-16T10:42:54.813Z,94624.00
2023-04-16T10:43:54.798Z,94628.00
2023-04-16T10:44:54.794Z,94628.00
2023-04-16T10:45:54.976Z,94628.00
2023-04-16T10:46:54.940Z,94626.00
2023-04-16T10:47:55.056Z,94620.00
2023-04-16T10:48:55.167Z,94618.00
2023-04-16T10:49:55.122Z,94622.00
2023-04-16T10:50:55.180Z,94622.00
2023-04-16T10:51:55.215Z,94622.00
2023-04-16T10:52:55.284Z,94624.00
2023-04-16T10:53:55.340Z,94620.00
2023-04-16T10:54:55.403Z,94624.00
2023-04-16T10:55:55.457Z,94624.00
2023-04-16T10:56:55.507Z,94624.00
2023-04-16T10:57:55.561Z,94624.00
2023-04-16T10:58:55.670Z,94622.00
2023-04-16T10:59:55.695Z,94620.00
2023-04-16T11:00:55.764Z,94622.00
2023-04-16T11:01:55.892Z,94618.00
2023-04-16T11:02:56.002Z,94618.00
2023-04-16T11:03:56.085Z,94616.00
2023-04-16T11:04:56.079Z,94616.00
2023-04-16T11:05:56.095Z,94616.00
2023-04-16T11:06:56.141Z,94614.00
2023-04-16T11:07:56.205Z,94612.00
2023-04-16T11:08:56.267Z,94612.00
2023-04-16T11:09:56.357Z,94612.00
2023-04-16T11:10:56.386Z,94610.00
2023-04-16T11:11:56.426Z,94612.00
2023-04-16T11:12:56.475Z,94612.00
2023-04-16T11:13:56.566Z,94614.00
2023-04-16T11:14:56.596Z,94616.00
2023-04-16T11:15:56.650Z,94618.00
2023-04-16T11:16:56.650Z,94616.00
2023-04-16T11:17:56.786Z,94616.00
2023-04-16T11:19:56.857Z,94618.00
2023-04-16T11:20:56.860Z,94618.00
2023-04-16T11:21:56.929Z,94620.00
2023-04-16T11:22:56.987Z,94620.00
2023-04-16T11:23:57.039Z,94618.00
2023-04-16T11:24:57.061Z,94618.00
2023-04-16T11:25:57.128Z,94618.00
2023-04-16T11:26:57.152Z,94620.00
2023-04-16T11:27:57.186Z,94622.00
2023-04-16T11:28:57.238Z,94618.00
2023-04-16T11:29:57.287Z,94618.00
2023-04-16T11:30:57.377Z,94620.00
2023-04-16T11:31:57.393Z,94624.00
2023-04-16T11:32:57.548Z,94624.00
2023-04-16T11:33:57.533Z,94626.00
2023-04-16T11:34:57.561Z,94624.00
2023-04-16T11:35:57.648Z,94628.00
2023-04-16T11:36:57.636Z,94624.00
2023-04-16T11:37:57.679Z,94628.00
2023-04-16T11:38:57.742Z,94628.00
2023-04-16T11:39:57.802Z,94628.00
2023-04-16T11:40:57.865Z,94624.00
2023-04-16T11:41:57.945Z,94626.00
2023-04-16T11:42:59.711Z,94630.00
2023-04-16T11:43:58.030Z,94628.00
2023-04-16T11:44:58.105Z,94626.00
2023-04-16T11:45:58.166Z,94628.00
2023-04-16T11:46:58.309Z,94628.00